Station: Broken Hill Airport  

  Atmospheric Gas Attenuation - ITU Rec 676-11   ----------------- dB/100km -----------------
Date Time Temp RH % AH g/m3 Dew Point Wind Direction Speed kph Gust kph Barometer mB Rainfall Since 9am 24GHz 47GHz 76GHz 122GHz 134GHz 241GHz
08/05 12:30 14.5 60 7.46 6.8 28 37 1029.4 0 17.1 24.5 35.7 93.2 84.1 288.2
08/05 12:20 14.3 60 7.37 6.6 35 39 1029.6 0 16.9 24.4 35.4 92.6 83.2 284.9
08/05 12:10 14 61 7.36 6.6 35 39 1029.7 0 16.9 24.5 35.5 92.8 83.3 285.6
08/05 12:00 14 62 7.48 6.8 28 37 1029.8 0 17.2 24.7 36.0 94.1 84.9 291.0
08/05 11:50 13.7 63 7.46 6.8 28 33 1030 0 17.2 24.7 36.1 94.2 85.0 291.2
08/05 11:40 14 62 7.48 6.8 26 30 1030.1 0 17.2 24.7 36.0 94.1 84.9 291.1
08/05 11:30 13.8 62 7.39 6.7 30 41 1030.1 0 17.0 24.6 35.8 93.4 84.0 287.8
08/05 11:20 13.5 63 7.37 6.6 33 41 1030.2 0 17.0 24.6 35.8 93.6 84.0 288.0
08/05 11:10 13.3 65 7.51 6.9 30 32 1030.3 0 17.3 24.9 36.5 95.3 86.1 295.0
08/05 11:00 13.3 65 7.51 6.9 28 35 1030.3 0 17.3 24.9 36.5 95.3 86.1 295.0
08/05 10:50 13.1 65 7.42 6.7 32 35 1030.4 0 17.1 24.8 36.2 94.6 85.1 291.7
08/05 10:40 12.6 66 7.3 6.4 30 35 1030.3 0 16.9 24.8 35.9 93.9 84.1 288.1
08/05 10:30 12.9 65 7.33 6.5 28 37 1030.3 0 16.9 24.8 35.9 93.9 84.2 288.4
08/05 10:20 12.6 66 7.3 6.4 33 35 1030.4 0 16.9 24.8 36.0 93.9 84.1 288.1
08/05 10:10 12.3 67 7.28 6.4 28 32 1030.5 0 16.8 24.8 36.0 94.1 84.2 288.3
08/05 10:00 12.2 67 7.23 6.3 30 37 1030.4 0 16.7 24.8 35.9 93.6 83.6 286.4
08/05 09:50 12.1 67 7.19 6.2 30 35 1030.4 0 16.6 24.8 35.7 93.3 83.2 284.9
08/05 09:40 11.8 67 7.05 5.9 28 32 1030.4 0 16.4 24.6 35.3 92.2 81.7 279.6
08/05 09:30 11.4 68 6.98 5.7 20 28 1030.4 0 16.2 24.6 35.2 91.9 81.2 277.8
08/05 09:20 11.1 69 6.95 5.6 22 26 1030.4 0 16.2 24.6 35.2 92.0 81.2 277.5
08/05 09:10 10.8 69 6.82 5.3 19 24 1030.3 0 15.9 24.5 34.9 90.9 79.8 272.6
08/05 09:00 10.1 71 6.72 5.1 20 28 1030.2 0 15.7 24.5 34.8 90.7 79.2 270.4
08/05 08:50 9.8 71 6.59 4.8 20 24 1030.2 0.2 15.5 24.4 34.4 89.6 77.8 265.5
08/05 08:40 9.4 72 6.51 4.6 19 20 1030.1 0.2 15.3 24.4 34.2 89.2 77.1 263.1
08/05 08:30 8.9 73 6.4 4.3 19 22 1030 0.2 15.1 24.3 34.0 88.6 76.2 259.7
08/05 08:20 8.4 75 6.36 4.2 15 17 1029.8 0.2 15.0 24.4 34.0 88.7 76.1 259.4
08/05 08:10 7.9 77 6.33 4.1 13 15 1029.8 0.2 15.0 24.5 34.1 89.0 76.2 259.7
08/05 08:00 7.6 78 6.29 4 13 17 1029.8 0.2 14.9 24.5 34.1 88.9 76.0 258.8
08/05 07:50 7.2 80 6.28 4 15 15 1029.6 0.2 14.9 24.6 34.2 89.2 76.2 259.6
08/05 07:40 6.7 80 6.08 3.5 15 17 1029.5 0.2 14.5 24.4 33.6 87.6 74.0 251.8
08/05 07:30 6.7 80 6.08 3.5 15 17 1029.3 0.2 14.5 24.4 33.6 87.6 74.0 251.8
08/05 07:20 6.2 82 6.03 3.4 15 15 1029.2 0.2 14.4 24.5 33.6 87.6 73.8 251.0
08/05 07:10 5.3 84 5.83 2.8 11 13 1029.2 0.2 14.0 24.4 33.2 86.4 71.9 244.4
08/05 07:00 4.5 87 5.72 2.5 13 13 1029.2 0.2 13.8 24.4 33.1 86.1 71.2 241.7
08/05 06:50 3.6 87 5.39 1.6 11 13 1029.1 0.2 13.1 24.1 32.1 83.4 67.5 228.7
08/05 06:40 3.2 85 5.13 0.9 11 11 1029.1 0.2 12.6 23.8 31.2 81.0 64.4 217.5
08/05 06:30 3.6 85 5.27 1.3 11 11 1029 0.2 12.9 23.9 31.6 82.1 65.9 223.0
08/05 06:20 4.2 85 5.48 1.9 11 11 1029 0.2 13.3 24.1 32.2 83.8 68.2 231.2
08/05 06:10 4.4 85 5.55 2.1 9 11 1028.9 0.2 13.4 24.1 32.4 84.3 69.0 233.9
08/05 06:00 4.5 84 5.53 2 9 9 1029 0.2 13.4 24.1 32.3 84.0 68.6 232.6
08/05 05:50 4.6 85 5.63 2.3 7 7 1029.1 0.2 13.6 24.2 32.6 85.0 69.9 237.1
08/05 05:40 4.2 85 5.48 1.9 9 9 1029.1 0.2 13.3 24.1 32.2 83.8 68.2 231.2
08/05 05:30 4 83 5.28 1.4 11 11 1029.1 0.2 12.9 23.8 31.5 81.8 65.7 222.3
08/05 05:20 4.2 83 5.35 1.6 11 13 1029.1 0.2 13.0 23.9 31.7 82.4 66.5 225.1
08/05 05:10 4.3 83 5.39 1.7 11 11 1029.1 0.2 13.1 23.9 31.8 82.7 66.9 226.7
08/05 05:00 4.4 82 5.36 1.6 13 13 1029.1 0.2 13.0 23.8 31.6 82.3 66.4 225.0
08/05 04:50 4.6 82 5.43 1.8 13 13 1029.1 0.2 13.2 23.9 31.8 82.8 67.2 227.7
08/05 04:40 4.4 82 5.36 1.6 13 13 1029 0.2 13.0 23.8 31.6 82.3 66.4 224.9
08/05 04:30 4.3 81 5.26 1.3 13 13 1029 0.2 12.8 23.7 31.3 81.3 65.2 220.5
08/05 04:20 4.3 81 5.26 1.3 11 11 1029 0.2 12.8 23.7 31.3 81.3 65.2 220.5
08/05 04:10 4.3 80 5.19 1.2 11 11 1029 0.2 12.7 23.6 31.0 80.5 64.3 217.3
08/05 04:00 4.6 79 5.23 1.3 9 11 1029 0.2 12.7 23.6 31.0 80.6 64.5 218.3
08/05 03:50 4.7 79 5.27 1.4 9 9 1029 0.2 12.8 23.6 31.1 81.0 65.0 219.9
08/05 03:40 4.8 79 5.3 1.5 9 9 1029.1 0.2 12.9 23.6 31.2 81.2 65.3 221.0
08/05 03:30 4.4 78 5.1 0.9 11 13 1029.2 0.2 12.5 23.4 30.6 79.5 63.0 212.9
08/05 03:20 4.4 76 4.97 0.6 13 13 1029.1 0.2 12.2 23.2 30.1 78.1 61.3 206.8
08/05 03:10 4.4 75 4.9 0.4 13 13 1029.1 0.2 12.0 23.1 29.8 77.3 60.4 203.6
08/05 03:00 4.8 75 5.03 0.8 9 11 1029.2 0.2 12.3 23.2 30.2 78.3 61.8 208.6
08/05 02:50 4.6 74 4.9 0.4 11 11 1029.1 0.2 12.0 23.0 29.7 77.1 60.2 203.1
08/05 02:40 4.8 73 4.9 0.4 11 11 1029.2 0.2 12.0 23.0 29.6 77.0 60.1 202.6
08/05 02:30 4.9 73 4.93 0.5 9 11 1029.3 0.2 12.1 23.0 29.7 77.2 60.4 203.7
08/05 02:20 4.7 71 4.73 -0.1 11 11 1029.2 0.2 11.7 22.8 29.0 75.3 57.9 195.1
08/05 02:10 5.1 71 4.86 0.3 11 11 1029.2 0.2 11.9 22.9 29.4 76.3 59.3 200.0
08/05 02:00 5 70 4.76 0 11 13 1029.2 0.2 11.7 22.7 29.0 75.3 58.1 195.7
08/05 01:50 5.1 68 4.65 -0.3 13 13 1029.4 0.2 11.5 22.5 28.6 74.1 56.6 190.6
08/05 01:40 5.3 68 4.72 -0.1 13 13 1029.4 0.2 11.6 22.6 28.8 74.6 57.4 193.2
08/05 01:30 5.5 67 4.71 -0.1 11 13 1029.2 0.2 11.6 22.5 28.6 74.3 57.1 192.3
08/05 01:20 5.5 65 4.57 -0.5 11 13 1029.1 0.2 11.3 22.3 28.1 72.9 55.3 186.0
08/05 01:10 5.9 63 4.55 -0.6 11 11 1029 0.2 11.3 22.2 27.9 72.3 54.8 184.1
08/05 01:00 6.2 64 4.71 -0.1 7 9 1029.1 0.2 11.6 22.3 28.4 73.6 56.6 190.6
08/05 00:50 5.7 65 4.63 -0.4 7 9 1029.1 0.2 11.4 22.3 28.3 73.3 55.9 188.2
08/05 00:40 5.5 64 4.5 -0.8 7 7 1029.2 0.2 11.2 22.2 27.8 72.1 54.4 182.9
08/05 00:20 5.1 67 4.59 -0.5 7 7 1029.1 0.2 11.4 22.4 28.3 73.4 55.8 187.8
08/05 00:10 4.6 65 4.3 -1.4 6 7 1029.1 0.2 10.8 22.1 27.4 70.9 52.5 176.0
08/05 00:00 4.3 65 4.22 -1.7 7 9 1029.1 0.2 10.6 22.1 27.2 70.3 51.7 173.0
07/05 23:50 4.4 62 4.05 -2.2 7 9 1029 0.2 10.2 21.8 26.5 68.5 49.4 165.2
07/05 23:40 4.5 62 4.08 -2.1 7 9 1029.1 0.2 10.3 21.8 26.6 68.7 49.8 166.4
07/05 23:30 5.1 62 4.24 -1.6 7 7 1029.1 0.2 10.6 21.9 27.0 69.8 51.4 172.2
07/05 23:20 5.6 62 4.39 -1.1 7 7 1029.2 0.2 10.9 22.0 27.4 70.9 53.0 177.8
07/05 23:10 5.6 63 4.46 -0.9 7 7 1029.2 0.2 11.1 22.1 27.7 71.6 53.8 180.9
07/05 23:00 5.7 60 4.27 -1.4 7 9 1029.3 0.2 10.7 21.8 26.9 69.6 51.4 172.3
07/05 22:50 6.4 60 4.47 -0.8 7 7 1029.4 0.2 11.1 21.9 27.4 71.1 53.4 179.5
07/05 22:40 7.7 55 4.46 -0.8 9 9 1029.5 0.2 11.0 21.6 27.0 69.8 52.4 176.2
07/05 22:30 8 54 4.47 -0.7 7 9 1029.4 0.2 11.0 21.6 26.9 69.6 52.4 176.0
07/05 22:20 8.2 54 4.52 -0.5 7 7 1029.6 0.2 11.1 21.6 27.0 70.0 52.9 177.8
07/05 22:10 7.9 54 4.44 -0.8 6 7 1029.7 0.2 11.0 21.6 26.8 69.5 52.1 175.0
07/05 22:00 8.1 54 4.5 -0.6 6 7 1029.5 0.2 11.1 21.6 27.0 69.9 52.7 177.1
07/05 21:50 8.1 53 4.41 -0.9 6 6 1029.6 0.2 10.9 21.5 26.6 69.0 51.6 173.2
07/05 21:40 7.9 53 4.36 -1.1 7 9 1029.5 0.2 10.8 21.4 26.5 68.7 51.1 171.5
07/05 21:30 8.2 52 4.36 -1.1 0 0 1029.3 0.2 10.8 21.3 26.4 68.4 50.9 170.8
07/05 21:20 8.3 52 4.38 -1 0 0 1029.4 0.2 10.8 21.4 26.5 68.5 51.1 171.5
07/05 21:10 8.2 52 4.36 -1.1 0 0 1029.4 0.2 10.8 21.4 26.4 68.4 50.9 170.9
07/05 21:00 8.2 52 4.36 -1.1 0 0 1029.3 0.2 10.8 21.3 26.4 68.4 50.9 170.8
07/05 20:50 7.3 54 4.27 -1.4 0 0 1029.4 0.2 10.6 21.4 26.4 68.3 50.4 168.9
07/05 20:40 7.1 53 4.14 -1.8 0 0 1029.5 0.2 10.3 21.3 26.0 67.2 48.9 163.7
07/05 20:30 7.4 52 4.14 -1.8 4 7 1029.3 0.2 10.3 21.2 25.9 66.9 48.7 163.1
07/05 20:20 7.6 52 4.19 -1.6 7 7 1029.2 0.2 10.4 21.2 26.0 67.2 49.2 164.8
07/05 20:10 7.8 50 4.08 -2 7 7 1029 0.2 10.2 21.0 25.5 66.0 47.7 159.7
07/05 20:00 8 49 4.05 -2 7 9 1029 0.2 10.1 20.9 25.3 65.5 47.3 158.0
07/05 19:50 8.3 48 4.05 -2 7 7 1028.9 0.2 10.1 20.9 25.2 65.2 47.1 157.4

Last Refresh: 08-May-2026 12:08:51

Bureau of Meteorology